Time;durP1;ratioP1;P1;durP2;ratioP2;P2;SDS_P1;SDS_P2;PMS_P1;PMS_P2;Temp;Humidity;BMP_temperature;BMP_pressure;BME280_temperature;BME280_humidity;BME280_pressure;Samples;Min_cycle;Max_cycle;Signal;HPM_P1;HPM_P2
2020/12/19 00:00:59;;;;;;;14.63;11.13;;;7.60;92.20;;;;;;4971386;28;20041;-57
2020/12/19 00:03:24;;;;;;;14.93;10.35;;;7.60;92.20;;;;;;4986399;28;20038;-56
2020/12/19 00:05:49;;;;;;;16.25;10.57;;;7.60;92.20;;;;;;4981221;28;20043;-59
2020/12/19 00:08:15;;;;;;;14.35;10.13;;;7.60;92.20;;;;;;4988628;28;20046;-58
2020/12/19 00:10:40;;;;;;;13.80;9.95;;;7.60;92.20;;;;;;4989384;28;20035;-58
2020/12/19 00:13:06;;;;;;;14.32;10.40;;;7.60;92.20;;;;;;4989800;28;20026;-57
2020/12/19 00:15:31;;;;;;;16.60;10.77;;;7.60;92.20;;;;;;4987859;28;20030;-57
2020/12/19 00:17:57;;;;;;;15.98;10.77;;;7.60;92.20;;;;;;4985099;28;20520;-59
2020/12/19 00:20:23;;;;;;;16.50;10.95;;;7.60;92.20;;;;;;4985625;28;20045;-56
2020/12/19 00:22:48;;;;;;;14.48;10.65;;;7.60;92.20;;;;;;4986787;28;20038;-57
2020/12/19 00:25:14;;;;;;;12.38;9.70;;;7.60;92.20;;;;;;4985394;28;20060;-57
2020/12/19 00:27:39;;;;;;;14.38;9.93;;;7.60;92.20;;;;;;4983789;28;20382;-59
2020/12/19 00:30:05;;;;;;;14.57;9.82;;;7.60;92.20;;;;;;4986305;28;20031;-56
2020/12/19 00:32:31;;;;;;;15.68;10.25;;;7.50;92.20;;;;;;4980507;28;20031;-57
2020/12/19 00:34:57;;;;;;;14.60;10.25;;;7.50;92.20;;;;;;4985587;28;20470;-59
2020/12/19 00:37:23;;;;;;;13.27;10.85;;;7.60;92.20;;;;;;4986452;28;20027;-58
2020/12/19 00:39:49;;;;;;;15.85;10.23;;;7.50;92.30;;;;;;4985860;28;20026;-56
2020/12/19 00:42:15;;;;;;;15.07;10.70;;;7.50;92.20;;;;;;4984806;28;20081;-58
2020/12/19 00:44:40;;;;;;;14.65;11.27;;;7.50;92.50;;;;;;4984724;28;20042;-57
2020/12/19 00:47:06;;;;;;;13.68;10.25;;;7.50;92.20;;;;;;4985015;28;20186;-58
2020/12/19 00:49:31;;;;;;;13.43;10.50;;;7.50;92.20;;;;;;4989082;28;20715;-56
2020/12/19 00:51:57;;;;;;;14.02;10.52;;;7.50;92.30;;;;;;4988804;28;20122;-59
2020/12/19 00:54:22;;;;;;;13.00;9.93;;;7.50;92.50;;;;;;4987186;28;20029;-60
2020/12/19 00:56:48;;;;;;;11.32;9.57;;;7.40;92.20;;;;;;4988121;28;20139;-58
2020/12/19 00:59:13;;;;;;;13.88;10.55;;;7.40;92.30;;;;;;4988775;28;20540;-58
2020/12/19 01:01:39;;;;;;;15.57;10.43;;;7.50;92.30;;;;;;4988781;28;20113;-59
2020/12/19 01:04:04;;;;;;;14.77;10.23;;;7.40;92.30;;;;;;4988994;28;20152;-57
2020/12/19 01:06:30;;;;;;;13.05;10.10;;;7.40;92.20;;;;;;4983659;28;20033;-56
2020/12/19 01:08:59;;;;;;;13.68;10.00;;;7.40;92.20;;;;;;4989190;28;20053;-59
2020/12/19 01:11:26;;;;;;;14.38;10.05;;;7.40;92.20;;;;;;4987742;28;20182;-58
2020/12/19 01:13:51;;;;;;;13.85;10.20;;;7.40;92.30;;;;;;4991616;28;20050;-56
2020/12/19 01:16:21;;;;;;;13.68;10.23;;;7.40;92.30;;;;;;4985495;28;20022;-59
2020/12/19 01:18:47;;;;;;;14.65;9.82;;;7.40;92.30;;;;;;4976700;28;20037;-56
2020/12/19 01:21:20;;;;;;;14.30;10.60;;;7.30;92.30;;;;;;4990284;28;20030;-58
2020/12/19 01:23:46;;;;;;;16.17;10.43;;;7.30;92.30;;;;;;4989012;28;20121;-58
2020/12/19 01:26:11;;;;;;;13.43;10.20;;;7.30;92.30;;;;;;4988862;28;20048;-57
2020/12/19 01:28:37;;;;;;;13.52;10.07;;;7.30;92.30;;;;;;4988775;28;20466;-56
2020/12/19 01:31:07;;;;;;;14.57;9.73;;;7.30;92.30;;;;;;4987976;28;20042;-57
2020/12/19 01:33:32;;;;;;;13.10;10.18;;;7.30;92.30;;;;;;4987766;28;20058;-56
2020/12/19 01:35:58;;;;;;;13.25;10.00;;;7.30;92.30;;;;;;4986508;28;20619;-63
2020/12/19 01:38:24;;;;;;;13.65;10.48;;;7.30;92.30;;;;;;4972794;28;20061;-56
2020/12/19 01:40:50;;;;;;;13.18;10.02;;;7.30;92.30;;;;;;4986756;28;20065;-58
2020/12/19 01:43:16;;;;;;;15.43;10.73;;;7.30;92.30;;;;;;4990891;28;21270;-57
2020/12/19 01:45:41;;;;;;;13.23;10.65;;;7.30;92.30;;;;;;4987498;28;20045;-57
2020/12/19 01:48:29;;;;;;;14.30;10.20;;;7.30;92.30;;;;;;4990150;28;20050;-59
2020/12/19 01:50:55;;;;;;;12.75;10.43;;;7.30;92.30;;;;;;4981305;28;20109;-58
2020/12/19 01:53:20;;;;;;;12.70;9.57;;;7.30;92.30;;;;;;4988189;28;20483;-59
2020/12/19 01:55:46;;;;;;;15.80;9.50;;;7.20;92.30;;;;;;4989034;28;20034;-56
2020/12/19 01:58:12;;;;;;;12.15;9.52;;;7.20;92.30;;;;;;4987579;28;20042;-58
2020/12/19 02:00:38;;;;;;;12.57;9.80;;;7.20;92.30;;;;;;4989921;28;20076;-59
2020/12/19 02:03:04;;;;;;;13.85;9.82;;;7.20;92.30;;;;;;4985888;28;20035;-56
2020/12/19 02:05:35;;;;;;;13.00;9.95;;;7.30;92.30;;;;;;4989714;28;20023;-58
2020/12/19 02:08:01;;;;;;;15.88;10.73;;;7.20;92.30;;;;;;4990904;28;20388;-57
2020/12/19 02:10:27;;;;;;;13.20;9.13;;;7.20;92.30;;;;;;4989036;28;20453;-57
2020/12/19 02:12:52;;;;;;;11.35;9.35;;;7.20;92.30;;;;;;4973199;28;20062;-57
2020/12/19 02:15:18;;;;;;;12.43;9.68;;;7.20;92.30;;;;;;4985284;28;20482;-56
2020/12/19 02:17:43;;;;;;;11.15;9.40;;;7.20;92.40;;;;;;4987715;28;20038;-59
2020/12/19 02:20:09;;;;;;;13.40;10.00;;;7.10;92.30;;;;;;5005542;28;20094;-58
2020/12/19 02:22:34;;;;;;;13.73;9.68;;;7.10;92.30;;;;;;4989181;28;20029;-59
2020/12/19 02:25:00;;;;;;;13.27;9.75;;;7.10;92.30;;;;;;4988356;28;20062;-58
2020/12/19 02:27:25;;;;;;;14.07;9.52;;;7.10;92.30;;;;;;4990090;28;20045;-58
2020/12/19 02:29:51;;;;;;;11.52;9.32;;;7.10;92.30;;;;;;4988299;28;20050;-56
2020/12/19 02:32:16;;;;;;;12.23;9.40;;;7.10;92.30;;;;;;4989222;28;20100;-57
2020/12/19 02:34:42;;;;;;;12.18;9.63;;;7.10;92.40;;;;;;4989723;28;20548;-57
2020/12/19 02:37:07;;;;;;;11.18;9.10;;;7.10;92.30;;;;;;4989743;28;20110;-59
2020/12/19 02:39:33;;;;;;;13.77;10.10;;;7.10;92.30;;;;;;4989963;28;20040;-57
2020/12/19 02:41:58;;;;;;;13.75;9.15;;;7.10;92.30;;;;;;4988154;28;20046;-58
2020/12/19 02:44:24;;;;;;;11.60;9.52;;;7.10;92.30;;;;;;4988752;28;20070;-57
2020/12/19 02:46:49;;;;;;;11.68;8.25;;;7.00;92.30;;;;;;4987285;28;20398;-56
2020/12/19 02:49:15;;;;;;;12.02;9.27;;;7.10;92.40;;;;;;4988789;28;20034;-59
2020/12/19 02:51:41;;;;;;;12.93;9.10;;;7.00;92.30;;;;;;4988643;28;20027;-57
2020/12/19 02:54:06;;;;;;;12.18;9.70;;;7.00;92.30;;;;;;4989478;28;20034;-59
2020/12/19 02:56:32;;;;;;;11.55;9.10;;;7.00;92.30;;;;;;4985722;28;20502;-56
2020/12/19 02:58:57;;;;;;;11.38;9.45;;;7.00;92.30;;;;;;4988385;28;20474;-58
2020/12/19 03:01:30;;;;;;;12.48;9.52;;;7.00;92.40;;;;;;4986889;28;20553;-57
2020/12/19 03:03:55;;;;;;;12.07;8.98;;;7.00;92.40;;;;;;4988244;28;20507;-59
2020/12/19 03:06:21;;;;;;;11.18;8.80;;;7.00;92.40;;;;;;4987120;28;20102;-57
2020/12/19 03:08:46;;;;;;;11.23;9.25;;;7.00;92.40;;;;;;4982424;28;20136;-57
2020/12/19 03:11:12;;;;;;;9.93;8.50;;;7.00;92.40;;;;;;5001077;28;20383;-58
2020/12/19 03:13:37;;;;;;;10.82;9.07;;;7.00;92.40;;;;;;4973143;28;20391;-57
2020/12/19 03:16:03;;;;;;;11.38;9.00;;;7.00;92.40;;;;;;4986965;28;20113;-57
2020/12/19 03:18:28;;;;;;;9.73;8.57;;;7.00;92.40;;;;;;4983361;28;20474;-56
2020/12/19 03:20:54;;;;;;;12.02;9.52;;;7.00;92.40;;;;;;4979169;28;20045;-59
2020/12/19 03:23:19;;;;;;;10.55;8.45;;;6.90;92.40;;;;;;4988533;28;20042;-58
2020/12/19 03:25:45;;;;;;;12.40;9.10;;;6.90;92.40;;;;;;4990000;28;20226;-58
2020/12/19 03:28:10;;;;;;;11.40;8.73;;;6.90;92.40;;;;;;4988976;28;20018;-57
2020/12/19 03:30:36;;;;;;;12.00;8.90;;;6.90;92.40;;;;;;4989361;28;20038;-56
2020/12/19 03:33:02;;;;;;;11.45;9.18;;;6.90;92.40;;;;;;4987631;28;20502;-56
2020/12/19 03:35:27;;;;;;;10.95;8.85;;;6.90;92.40;;;;;;4987553;28;20038;-58
2020/12/19 03:37:52;;;;;;;12.65;9.02;;;6.90;92.40;;;;;;4990288;28;20090;-56
2020/12/19 03:40:18;;;;;;;10.13;8.65;;;6.90;92.30;;;;;;4988940;28;20157;-56
2020/12/19 03:42:44;;;;;;;13.55;10.00;;;6.90;92.30;;;;;;4988141;28;20060;-59
2020/12/19 03:45:09;;;;;;;10.35;8.68;;;6.90;92.30;;;;;;4987806;28;20053;-58
2020/12/19 03:47:35;;;;;;;10.60;8.20;;;6.90;92.40;;;;;;4987675;28;20049;-58
2020/12/19 03:50:01;;;;;;;11.15;8.55;;;6.80;92.40;;;;;;4988066;28;20031;-57
2020/12/19 03:52:26;;;;;;;9.95;8.75;;;6.90;92.40;;;;;;4989397;28;20033;-57
2020/12/19 03:54:52;;;;;;;9.85;8.48;;;6.80;92.40;;;;;;4994915;28;20113;-58
2020/12/19 03:57:18;;;;;;;10.65;8.80;;;6.80;92.30;;;;;;4987798;28;20131;-57
2020/12/19 03:59:43;;;;;;;11.80;8.98;;;6.80;92.30;;;;;;4988760;28;20563;-56
2020/12/19 04:02:09;;;;;;;8.93;7.72;;;6.80;92.30;;;;;;4986825;28;20030;-58
2020/12/19 04:04:34;;;;;;;9.88;7.78;;;6.80;92.30;;;;;;4989231;28;20732;-57
2020/12/19 04:07:01;;;;;;;12.63;8.93;;;6.80;92.30;;;;;;4989636;28;20531;-57
2020/12/19 04:09:26;;;;;;;13.10;9.88;;;6.80;92.40;;;;;;4989351;28;20048;-56
2020/12/19 04:11:52;;;;;;;11.57;8.60;;;6.80;92.30;;;;;;4989374;28;20023;-57
2020/12/19 04:14:17;;;;;;;10.55;8.48;;;6.80;92.30;;;;;;4986206;28;20030;-56
2020/12/19 04:16:46;;;;;;;11.13;8.70;;;6.80;92.30;;;;;;4985900;28;20498;-59
2020/12/19 04:19:12;;;;;;;10.10;8.85;;;6.80;92.30;;;;;;4989827;28;20033;-57
2020/12/19 04:21:37;;;;;;;10.63;8.27;;;6.80;92.40;;;;;;4993447;28;20034;-57
2020/12/19 04:24:02;;;;;;;9.50;8.50;;;6.80;92.40;;;;;;4991301;28;20034;-57
2020/12/19 04:26:28;;;;;;;10.05;8.40;;;6.70;92.30;;;;;;4984257;28;20437;-58
2020/12/19 04:28:53;;;;;;;10.20;8.25;;;6.70;92.40;;;;;;4980714;28;20045;-58
2020/12/19 04:31:19;;;;;;;9.98;8.50;;;6.70;92.30;;;;;;4978856;28;20065;-57
2020/12/19 04:33:44;;;;;;;9.68;8.52;;;6.70;92.30;;;;;;4989924;28;20042;-56
2020/12/19 04:36:10;;;;;;;9.52;7.97;;;6.70;92.30;;;;;;4993418;28;20042;-58
2020/12/19 04:38:35;;;;;;;10.25;8.55;;;6.70;92.30;;;;;;4982474;28;20041;-57
2020/12/19 04:41:01;;;;;;;11.15;8.27;;;6.70;92.30;;;;;;4985718;28;20438;-59
2020/12/19 04:43:27;;;;;;;11.48;8.13;;;6.70;92.30;;;;;;4967128;28;20088;-57
2020/12/19 04:45:54;;;;;;;10.80;8.73;;;6.70;92.30;;;;;;4974369;28;20038;-59
2020/12/19 04:48:22;;;;;;;10.32;7.68;;;6.70;92.30;;;;;;4990408;28;20045;-58
2020/12/19 04:50:47;;;;;;;10.23;7.85;;;6.70;92.20;;;;;;4982479;28;20109;-59
2020/12/19 04:53:23;;;;;;;9.25;8.00;;;6.60;92.30;;;;;;4979735;28;20038;-62
2020/12/19 04:55:48;;;;;;;10.50;8.32;;;6.60;92.30;;;;;;4985451;28;20031;-58
2020/12/19 04:58:16;;;;;;;9.57;8.20;;;6.60;92.30;;;;;;4990581;28;20092;-57
2020/12/19 05:00:41;;;;;;;11.55;8.32;;;6.60;92.30;;;;;;4989251;28;20045;-57
2020/12/19 05:03:07;;;;;;;9.02;7.47;;;6.60;92.30;;;;;;4973556;28;20031;-58
2020/12/19 05:05:33;;;;;;;8.20;7.32;;;6.60;92.30;;;;;;4986847;28;20066;-56
2020/12/19 05:07:59;;;;;;;10.23;8.15;;;6.60;92.30;;;;;;4987281;28;20027;-60
2020/12/19 05:10:24;;;;;;;10.07;7.85;;;6.60;92.30;;;;;;4989617;28;20060;-58
2020/12/19 05:12:54;;;;;;;9.32;8.00;;;6.60;92.30;;;;;;4991521;28;20112;-56
2020/12/19 05:15:19;;;;;;;10.40;7.40;;;6.60;92.30;;;;;;4989454;28;20037;-57
2020/12/19 05:17:55;;;;;;;8.82;7.38;;;6.50;92.30;;;;;;4985731;28;20023;-57
2020/12/19 05:20:20;;;;;;;9.43;7.88;;;6.50;92.30;;;;;;4984542;28;20616;-59
2020/12/19 05:22:50;;;;;;;9.50;8.10;;;6.50;92.30;;;;;;4990465;28;20038;-57
2020/12/19 05:25:16;;;;;;;8.48;7.38;;;6.50;92.30;;;;;;4988470;28;20051;-56
2020/12/19 05:27:45;;;;;;;10.40;7.85;;;6.50;92.30;;;;;;4969366;28;20022;-58
2020/12/19 05:30:15;;;;;;;9.15;8.05;;;6.50;92.30;;;;;;4989675;28;20033;-58
2020/12/19 05:32:58;;;;;;;11.73;8.13;;;6.50;92.30;;;;;;4985831;28;20694;-59
2020/12/19 05:35:24;;;;;;;9.68;7.60;;;6.50;92.30;;;;;;4969034;28;20041;-58
2020/12/19 05:37:55;;;;;;;9.93;7.63;;;6.50;92.60;;;;;;4991961;28;20030;-64
2020/12/19 05:40:21;;;;;;;11.38;7.60;;;6.50;92.30;;;;;;4971958;28;20402;-57
2020/12/19 05:42:47;;;;;;;10.57;8.23;;;6.50;92.20;;;;;;4984796;28;20112;-60
2020/12/19 05:45:16;;;;;;;8.05;7.05;;;6.50;92.20;;;;;;4987844;28;20042;-59
2020/12/19 05:47:42;;;;;;;9.00;7.95;;;6.50;92.30;;;;;;4989764;28;20444;-59
2020/12/19 05:50:07;;;;;;;9.90;7.60;;;6.50;92.20;;;;;;4987507;28;20110;-58
2020/12/19 05:52:33;;;;;;;9.95;8.23;;;6.50;92.20;;;;;;4974760;28;20233;-56
2020/12/19 05:54:58;;;;;;;9.95;8.02;;;6.50;92.20;;;;;;4988636;28;20077;-57
2020/12/19 05:57:25;;;;;;;8.43;7.10;;;6.50;92.20;;;;;;4987064;28;20510;-57
2020/12/19 05:59:51;;;;;;;11.80;8.15;;;6.40;92.20;;;;;;4970949;28;20030;-59
2020/12/19 06:02:16;;;;;;;10.23;7.85;;;6.40;92.20;;;;;;4973770;28;20503;-56
2020/12/19 06:04:42;;;;;;;10.10;7.75;;;6.40;92.20;;;;;;4976049;28;20120;-56
2020/12/19 06:07:09;;;;;;;11.80;7.50;;;6.40;92.10;;;;;;4972705;28;20158;-57
2020/12/19 06:09:34;;;;;;;10.27;7.93;;;6.40;92.10;;;;;;4971663;28;20066;-57
2020/12/19 06:12:06;;;;;;;9.25;7.07;;;6.40;92.10;;;;;;4987925;28;20116;-58
2020/12/19 06:14:35;;;;;;;11.63;8.13;;;6.40;92.10;;;;;;4972338;28;20034;-56
2020/12/19 06:17:09;;;;;;;12.23;7.53;;;6.40;92.10;;;;;;4969602;28;20026;-59
2020/12/19 06:19:35;;;;;;;10.33;8.07;;;6.40;92.10;;;;;;4988934;28;20377;-58
2020/12/19 06:22:00;;;;;;;9.35;7.53;;;6.40;92.00;;;;;;4989149;28;20280;-58
2020/12/19 06:24:45;;;;;;;12.13;7.78;;;6.40;92.10;;;;;;4969777;28;20042;-57
2020/12/19 06:27:31;;;;;;;9.80;7.40;;;6.40;92.00;;;;;;4981980;28;20056;-58
2020/12/19 06:29:57;;;;;;;9.10;7.25;;;6.40;92.00;;;;;;4983279;28;20027;-57
2020/12/19 06:32:24;;;;;;;12.35;7.70;;;6.40;92.00;;;;;;4986250;28;20394;-57
2020/12/19 06:35:16;;;;;;;16.02;8.13;;;6.40;92.10;;;;;;4989016;28;20114;-59
2020/12/19 06:37:41;;;;;;;12.60;7.82;;;6.40;92.10;;;;;;4996007;28;20038;-58
2020/12/19 06:40:07;;;;;;;22.65;9.57;;;6.40;92.20;;;;;;4987629;28;20057;-63
2020/12/19 06:42:32;;;;;;;13.85;10.38;;;6.40;92.10;;;;;;4987608;28;20486;-58
2020/12/19 06:45:23;;;;;;;14.27;10.55;;;6.40;92.10;;;;;;4987217;28;20057;-58
2020/12/19 06:47:49;;;;;;;11.88;9.75;;;6.40;92.00;;;;;;4982543;28;20069;-58
2020/12/19 06:50:15;;;;;;;13.52;9.15;;;6.40;92.10;;;;;;4986119;28;20069;-61
2020/12/19 06:52:52;;;;;;;12.82;8.90;;;6.40;92.10;;;;;;4970351;28;20014;-58
2020/12/19 06:55:18;;;;;;;18.02;10.10;;;6.40;92.10;;;;;;4985367;28;20030;-57
2020/12/19 06:57:49;;;;;;;20.33;9.80;;;6.40;92.10;;;;;;4988437;28;20490;-57
2020/12/19 07:00:22;;;;;;;20.15;10.02;;;6.40;92.10;;;;;;4987985;28;20022;-56
2020/12/19 07:02:52;;;;;;;20.27;10.48;;;6.40;92.10;;;;;;4986247;28;20027;-59
2020/12/19 07:05:19;;;;;;;12.98;9.57;;;6.40;92.10;;;;;;4987589;28;20114;-57
2020/12/19 07:07:44;;;;;;;16.70;9.15;;;6.40;92.10;;;;;;4986237;28;20026;-59
2020/12/19 07:10:10;;;;;;;15.85;9.20;;;6.40;92.20;;;;;;4988536;28;20509;-57
2020/12/19 07:12:37;;;;;;;20.70;10.88;;;6.40;92.20;;;;;;4986868;28;20034;-56
2020/12/19 07:15:07;;;;;;;16.80;11.05;;;6.40;92.20;;;;;;4979493;28;20138;-57
2020/12/19 07:17:48;;;;;;;20.02;11.50;;;6.30;92.20;;;;;;4990231;28;20026;-58
2020/12/19 07:20:19;;;;;;;20.08;11.68;;;6.40;92.20;;;;;;4987666;28;20026;-56
2020/12/19 07:22:44;;;;;;;31.50;11.60;;;6.40;92.20;;;;;;4989291;28;20125;-59
2020/12/19 07:25:09;;;;;;;27.48;11.82;;;6.40;92.20;;;;;;4988459;28;20101;-56
2020/12/19 07:27:35;;;;;;;23.70;11.15;;;6.40;92.10;;;;;;4985954;28;20034;-59
2020/12/19 07:30:01;;;;;;;18.80;10.57;;;6.30;92.10;;;;;;4986281;28;20507;-57
2020/12/19 07:32:27;;;;;;;22.73;10.80;;;6.40;92.20;;;;;;4986513;28;20037;-56
2020/12/19 07:34:56;;;;;;;16.45;10.00;;;6.30;92.10;;;;;;4971757;28;20034;-58
2020/12/19 07:37:21;;;;;;;21.35;10.80;;;6.40;92.10;;;;;;4985472;28;20033;-57
2020/12/19 07:39:47;;;;;;;19.45;11.00;;;6.40;92.10;;;;;;4988682;28;20030;-58
2020/12/19 07:42:13;;;;;;;27.70;10.43;;;6.40;92.10;;;;;;4983705;28;20429;-57
2020/12/19 07:44:38;;;;;;;26.20;11.07;;;6.40;92.10;;;;;;4987302;28;20054;-57
2020/12/19 07:47:13;;;;;;;21.67;11.05;;;6.40;92.10;;;;;;4985587;28;20049;-56
2020/12/19 07:49:42;;;;;;;28.95;10.45;;;6.40;92.10;;;;;;4987805;28;20026;-59
2020/12/19 07:52:26;;;;;;;18.83;10.30;;;6.40;92.10;;;;;;4989633;28;20576;-58
2020/12/19 07:54:55;;;;;;;18.00;10.13;;;6.40;92.10;;;;;;4986567;28;20045;-56
2020/12/19 07:57:21;;;;;;;17.75;10.15;;;6.40;92.10;;;;;;4988972;28;20034;-56
2020/12/19 07:59:47;;;;;;;21.50;10.68;;;6.40;92.10;;;;;;4993710;28;20109;-56
2020/12/19 08:02:14;;;;;;;20.70;9.63;;;6.40;92.10;;;;;;4994252;28;20037;-56
2020/12/19 08:04:40;;;;;;;24.33;11.25;;;6.40;92.10;;;;;;4993682;28;20026;-60
2020/12/19 08:07:05;;;;;;;21.15;10.10;;;6.40;92.00;;;;;;4993758;28;20089;-58
2020/12/19 08:09:31;;;;;;;25.92;10.10;;;6.40;92.10;;;;;;4990283;28;20030;-56
2020/12/19 08:12:00;;;;;;;19.02;10.13;;;6.40;92.00;;;;;;4995284;28;20038;-57
2020/12/19 08:14:25;;;;;;;23.02;10.88;;;6.40;92.00;;;;;;4988186;28;20570;-57
2020/12/19 08:16:51;;;;;;;15.65;9.95;;;6.40;91.90;;;;;;4975872;28;20026;-58
2020/12/19 08:19:38;;;;;;;20.60;10.35;;;6.30;91.90;;;;;;4993339;28;20425;-57
2020/12/19 08:22:04;;;;;;;19.48;10.13;;;6.30;91.90;;;;;;4984116;28;20030;-57
2020/12/19 08:24:29;;;;;;;17.95;10.63;;;6.30;92.00;;;;;;5003213;28;20398;-56
2020/12/19 08:27:33;;;;;;;18.42;9.80;;;6.30;92.00;;;;;;4987048;28;20034;-58
2020/12/19 08:30:01;;;;;;;12.48;9.70;;;6.30;92.00;;;;;;4986056;28;20025;-58
2020/12/19 08:32:28;;;;;;;18.73;10.30;;;6.30;92.00;;;;;;4987666;28;20030;-56
2020/12/19 08:34:53;;;;;;;22.63;10.80;;;6.30;92.10;;;;;;4985045;28;20049;-57
2020/12/19 08:37:20;;;;;;;16.95;10.43;;;6.30;92.10;;;;;;4989628;28;20070;-57
2020/12/19 08:40:11;;;;;;;24.58;11.65;;;6.30;92.10;;;;;;4972692;28;20564;-58
2020/12/19 08:42:38;;;;;;;30.80;11.52;;;6.30;92.30;;;;;;5003394;28;20563;-59
2020/12/19 08:45:19;;;;;;;17.15;10.98;;;6.30;92.20;;;;;;4992893;28;20034;-57
2020/12/19 08:47:44;;;;;;;39.05;12.05;;;6.30;92.10;;;;;;4990331;28;20073;-59
2020/12/19 08:50:10;;;;;;;51.72;13.68;;;6.30;92.30;;;;;;4986249;28;20138;-59
2020/12/19 08:52:36;;;;;;;35.25;12.20;;;6.30;92.20;;;;;;4989002;28;20114;-56
2020/12/19 08:55:01;;;;;;;46.22;12.18;;;6.30;92.20;;;;;;4990498;28;20022;-56
2020/12/19 08:57:31;;;;;;;32.53;11.95;;;6.30;92.30;;;;;;4988161;28;20432;-58
2020/12/19 09:00:15;;;;;;;35.25;12.75;;;6.40;92.30;;;;;;4987488;28;20042;-58
2020/12/19 09:02:41;;;;;;;36.13;12.20;;;6.40;92.20;;;;;;4981535;28;20064;-58
2020/12/19 09:05:07;;;;;;;57.33;12.65;;;6.40;92.10;;;;;;4984277;28;20034;-58
2020/12/19 09:07:33;;;;;;;33.42;12.00;;;6.40;92.10;;;;;;4969008;28;20038;-59
2020/12/19 09:09:58;;;;;;;32.83;12.30;;;6.40;92.30;;;;;;4986108;28;20054;-58
2020/12/19 09:12:24;;;;;;;36.13;12.23;;;6.40;92.30;;;;;;4986303;28;20566;-57
2020/12/19 09:14:49;;;;;;;32.40;12.98;;;6.40;92.30;;;;;;4967197;28;20490;-58
2020/12/19 09:17:30;;;;;;;38.17;12.05;;;6.40;92.60;;;;;;4985741;28;20049;-58
2020/12/19 09:20:14;;;;;;;32.45;12.68;;;6.40;92.40;;;;;;4981409;28;20037;-57
2020/12/19 09:22:40;;;;;;;44.40;12.38;;;6.50;92.40;;;;;;4980315;28;20061;-60
2020/12/19 09:25:05;;;;;;;45.70;13.68;;;6.50;92.50;;;;;;4983716;28;20101;-58
2020/12/19 09:27:31;;;;;;;45.88;13.32;;;6.50;92.40;;;;;;4980043;28;20106;-57
2020/12/19 09:29:56;;;;;;;34.80;13.07;;;6.50;92.50;;;;;;4975880;28;20046;-58
2020/12/19 09:32:22;;;;;;;49.63;13.45;;;6.60;92.50;;;;;;4979066;28;20584;-56
2020/12/19 09:34:47;;;;;;;50.92;14.82;;;6.60;92.50;;;;;;4979280;28;20516;-59
2020/12/19 09:37:13;;;;;;;53.38;14.20;;;6.60;92.50;;;;;;4981973;28;20061;-57
2020/12/19 09:39:38;;;;;;;43.50;13.68;;;6.60;92.60;;;;;;4977104;28;20039;-59
2020/12/19 09:42:04;;;;;;;63.90;14.43;;;6.70;92.70;;;;;;4978843;28;20198;-59
2020/12/19 09:44:29;;;;;;;55.05;16.50;;;6.70;92.80;;;;;;4977594;28;20386;-58
2020/12/19 09:46:55;;;;;;;68.07;15.57;;;6.70;92.80;;;;;;4978365;28;20045;-57
2020/12/19 09:49:20;;;;;;;74.10;15.13;;;6.70;92.80;;;;;;4980991;28;20529;-58
2020/12/19 09:51:46;;;;;;;55.58;15.98;;;6.80;92.80;;;;;;4985654;28;20520;-57
2020/12/19 09:54:11;;;;;;;84.00;16.73;;;6.80;92.80;;;;;;4976435;28;20033;-57
2020/12/19 09:56:37;;;;;;;71.50;15.70;;;6.80;92.80;;;;;;4983432;28;20043;-58
2020/12/19 09:59:04;;;;;;;86.63;17.73;;;6.90;93.00;;;;;;4995411;28;20038;-61
2020/12/19 10:01:29;;;;;;;113.30;20.77;;;6.90;93.00;;;;;;4976868;28;20026;-58
2020/12/19 10:03:55;;;;;;;125.72;20.08;;;7.00;93.00;;;;;;4977825;28;20018;-59
2020/12/19 10:06:20;;;;;;;108.93;20.83;;;7.00;92.90;;;;;;4981763;28;20035;-56
2020/12/19 10:08:46;;;;;;;125.68;23.98;;;7.10;92.80;;;;;;4979957;28;20038;-56
2020/12/19 10:11:11;;;;;;;145.63;22.58;;;7.10;92.80;;;;;;4977798;28;20047;-58
2020/12/19 10:13:37;;;;;;;130.32;21.17;;;7.20;92.80;;;;;;4968104;28;20137;-60
2020/12/19 10:16:06;;;;;;;151.15;23.17;;;7.20;92.70;;;;;;4982261;28;20118;-59
2020/12/19 10:18:31;;;;;;;104.18;20.83;;;7.20;92.80;;;;;;4980317;28;20635;-59
2020/12/19 10:20:57;;;;;;;128.82;23.55;;;7.30;92.70;;;;;;4984811;28;20117;-56
2020/12/19 10:23:22;;;;;;;134.52;22.90;;;7.20;92.70;;;;;;4983002;28;20078;-58
2020/12/19 10:25:48;;;;;;;138.60;22.20;;;7.20;92.80;;;;;;4981392;28;20164;-59
2020/12/19 10:28:13;;;;;;;148.02;22.90;;;7.20;92.90;;;;;;4983199;28;20497;-57
2020/12/19 10:30:39;;;;;;;185.60;25.40;;;7.30;92.90;;;;;;4981449;28;20049;-57
2020/12/19 10:33:04;;;;;;;146.02;23.35;;;7.30;93.00;;;;;;4980780;28;20027;-56
2020/12/19 10:35:30;;;;;;;184.48;23.90;;;7.40;93.00;;;;;;4985133;28;20121;-59
2020/12/19 10:37:55;;;;;;;130.07;23.23;;;7.40;93.00;;;;;;4976587;28;20038;-56
2020/12/19 10:40:21;;;;;;;150.13;24.98;;;7.40;93.00;;;;;;4984221;28;20138;-58
2020/12/19 10:42:47;;;;;;;158.32;24.52;;;7.40;92.90;;;;;;4979878;28;20058;-57
2020/12/19 10:45:12;;;;;;;149.35;24.10;;;7.50;92.90;;;;;;4980039;28;20432;-57
2020/12/19 10:47:37;;;;;;;158.45;26.15;;;7.50;92.90;;;;;;4979540;28;20045;-58
2020/12/19 10:50:03;;;;;;;186.73;27.58;;;7.50;92.80;;;;;;4977817;28;20498;-56
2020/12/19 10:52:29;;;;;;;150.38;25.17;;;7.60;92.80;;;;;;4981169;28;20073;-58
2020/12/19 10:54:54;;;;;;;124.72;21.75;;;7.60;92.80;;;;;;4982821;28;20792;-58
2020/12/19 10:57:20;;;;;;;169.45;26.75;;;7.60;92.70;;;;;;4981536;28;20046;-56
2020/12/19 10:59:45;;;;;;;148.70;25.05;;;7.60;92.70;;;;;;4961656;28;20501;-58
2020/12/19 11:02:11;;;;;;;158.38;27.73;;;7.60;92.70;;;;;;4979636;28;20070;-58
2020/12/19 11:04:36;;;;;;;161.30;26.08;;;7.60;92.70;;;;;;4979561;28;20030;-56
2020/12/19 11:07:02;;;;;;;191.73;26.95;;;7.70;92.70;;;;;;4981011;28;20539;-58
2020/12/19 11:09:27;;;;;;;149.73;26.02;;;7.80;92.70;;;;;;4976412;28;20093;-56
2020/12/19 11:11:53;;;;;;;166.88;26.80;;;7.80;92.60;;;;;;4979658;28;20447;-59
2020/12/19 11:14:19;;;;;;;168.60;28.08;;;7.80;92.60;;;;;;4975537;28;20470;-56
2020/12/19 11:16:44;;;;;;;194.77;29.42;;;7.80;92.50;;;;;;4957907;28;20033;-58
2020/12/19 11:19:10;;;;;;;204.77;29.63;;;7.80;92.50;;;;;;4977428;28;20061;-58
2020/12/19 11:21:45;;;;;;;176.48;26.33;;;7.80;92.50;;;;;;4983027;28;20664;-55
2020/12/19 11:24:13;;;;;;;162.13;26.42;;;7.80;92.40;;;;;;4982485;28;20030;-56
2020/12/19 11:26:40;;;;;;;181.90;27.13;;;7.80;92.40;;;;;;4979375;28;20347;-58
2020/12/19 11:29:05;;;;;;;173.23;26.48;;;7.90;92.30;;;;;;4980132;28;20057;-58
2020/12/19 11:31:32;;;;;;;196.80;27.17;;;7.90;92.40;;;;;;4983117;28;20070;-57
2020/12/19 11:33:58;;;;;;;188.32;28.88;;;7.90;92.20;;;;;;4985727;28;20035;-57
2020/12/19 11:36:23;;;;;;;143.35;25.60;;;8.00;92.30;;;;;;4984192;28;20030;-56
2020/12/19 11:38:49;;;;;;;178.43;27.02;;;8.00;92.20;;;;;;4985826;28;20037;-58
2020/12/19 11:41:21;;;;;;;149.20;26.88;;;8.00;92.20;;;;;;4983820;28;20121;-57
2020/12/19 11:43:46;;;;;;;156.27;25.98;;;8.00;92.20;;;;;;4980959;28;20056;-56
2020/12/19 11:46:12;;;;;;;206.55;30.10;;;8.00;92.20;;;;;;4976012;28;20109;-57
2020/12/19 11:48:37;;;;;;;151.18;23.70;;;8.00;92.30;;;;;;4980317;28;20039;-61
2020/12/19 11:51:03;;;;;;;190.55;25.88;;;8.00;92.20;;;;;;4981423;28;20030;-58
2020/12/19 11:53:28;;;;;;;182.07;26.08;;;8.00;92.20;;;;;;4978355;28;20363;-58
2020/12/19 11:55:54;;;;;;;204.27;26.98;;;8.00;92.20;;;;;;4966233;28;20029;-58
2020/12/19 11:58:19;;;;;;;194.43;27.90;;;8.00;92.20;;;;;;4981206;28;20089;-58
2020/12/19 12:00:45;;;;;;;205.27;28.27;;;8.00;92.10;;;;;;4982150;28;20037;-56
2020/12/19 12:03:10;;;;;;;199.88;28.60;;;8.00;92.10;;;;;;4978541;28;20102;-56
2020/12/19 12:05:36;;;;;;;198.43;29.55;;;8.10;92.10;;;;;;4983805;28;20085;-58
2020/12/19 12:08:01;;;;;;;175.23;28.70;;;8.10;92.00;;;;;;4982338;28;21969;-57
2020/12/19 12:10:27;;;;;;;178.85;26.15;;;8.10;92.00;;;;;;4982957;28;20040;-56
2020/12/19 12:12:52;;;;;;;148.27;26.13;;;8.10;91.80;;;;;;4983047;28;20030;-57
2020/12/19 12:15:18;;;;;;;157.93;25.00;;;8.10;92.00;;;;;;4983714;28;20039;-58
2020/12/19 12:17:43;;;;;;;162.35;23.75;;;8.10;91.80;;;;;;4981132;28;20153;-59
2020/12/19 12:20:10;;;;;;;143.13;25.08;;;8.10;91.70;;;;;;4979457;28;20132;-56
2020/12/19 12:22:36;;;;;;;167.20;25.13;;;8.10;91.80;;;;;;4976981;28;20065;-56
2020/12/19 12:25:01;;;;;;;145.27;25.42;;;8.10;91.80;;;;;;4984338;28;20039;-57
2020/12/19 12:27:27;;;;;;;155.07;24.75;;;8.10;91.70;;;;;;4982009;28;20042;-57
2020/12/19 12:29:52;;;;;;;190.77;24.67;;;8.10;91.70;;;;;;4981925;28;20034;-57
2020/12/19 12:32:18;;;;;;;163.48;23.65;;;8.10;91.70;;;;;;4982671;28;20033;-55
2020/12/19 12:34:43;;;;;;;138.98;24.20;;;8.10;91.70;;;;;;4980007;28;20599;-58
2020/12/19 12:37:12;;;;;;;169.40;26.27;;;8.10;91.60;;;;;;4984826;28;20041;-57
2020/12/19 12:39:37;;;;;;;133.63;22.08;;;8.10;91.60;;;;;;4979046;28;20046;-58